Monday, July 16, 2018, 11:35 PM MDT
Back to Local

KITR, Burlington Carson County

Location: Burlington, CO, United States Lat: 39.25
Local Time: 11:35 PM MDT ( 5:35 GMT) Lon: -102.283
Time Zone: US/Mountain Elev: 4215 ft

Show me the last for .
Show Decoded

2018-07-16 22:53 METAR KITR 170453Z AUTO 19005KT 10SM CLR 21/16 A3017 RMK AO2 SLP164 T02110161 =
2018-07-16 21:53 METAR KITR 170353Z AUTO 17005KT 10SM CLR 21/16 A3018 RMK AO2 SLP167 T02110161 =
2018-07-16 20:53 METAR KITR 170253Z AUTO 19012G20KT 10SM FEW080 24/16 A3016 RMK AO2 SLP161
                 T02440161 53011 =
2018-07-16 19:53 METAR KITR 170153Z AUTO 16008KT 10SM CLR 25/16 A3013 RMK AO2 SLP151 T02500156 =
2018-07-16 18:53 METAR KITR 170053Z AUTO 17012G20KT 10SM CLR 27/17 A3013 RMK AO2 PK WND
                 15028/0031 SLP146 T02720167 =
2018-07-16 17:53 METAR KITR 162353Z AUTO 12010KT 10SM FEW060 31/17 A3013 RMK AO2 LTG DSNT S
                 SLP142 T03060167 10311 20250 56014 =
2018-07-16 16:53 METAR KITR 162253Z AUTO 12009KT 10SM FEW055 31/17 A3014 RMK AO2 LTG DSNT S
                 SLP145 T03060172 =
2018-07-16 15:53 METAR KITR 162153Z AUTO 10011KT 10SM BKN047 31/18 A3015 RMK AO2 SLP151 T03060183
                 =
2018-07-16 13:53 METAR KITR 161953Z AUTO 10009G20KT 10SM FEW038 29/18 A3019 RMK AO2 SLP164
                 T02890178 =
2018-07-16 12:53 METAR KITR 161853Z AUTO 16010KT 10SM FEW030 28/19 A3021 RMK AO2 SLP173 T02780189
                 =
2018-07-16 11:53 METAR KITR 161753Z AUTO VRB06KT 10SM FEW017 SCT120 25/19 A3021 RMK AO2 SLP176
                 T02500194 10256 20194 50004 =
2018-07-16 11:01 METAR KITR 161701Z AUTO 14005KT 10SM SCT014 OVC110 23/19 A3022 RMK AO2 T02330194
                 =
2018-07-16 10:53 METAR KITR 161653Z AUTO 12008KT 10SM BKN014 OVC110 23/19 A3022 RMK AO2 SLP181
                 T02280189 =
2018-07-16 10:05 METAR KITR 161605Z AUTO 10008KT 10SM BKN010 22/19 A3022 RMK AO2 T02220194 =
2018-07-16 09:53 METAR KITR 161553Z AUTO 08008KT 10SM SCT008 SCT110 23/19 A3021 RMK AO2 SLP177
                 T02280194 =
2018-07-16 08:53 METAR KITR 161453Z AUTO 11011KT 9SM FEW006 SCT042 BKN110 21/19 A3020 RMK AO2
                 SLP176 T02110194 50001 =
2018-07-16 08:37 METAR KITR 161437Z AUTO 12008KT 10SM FEW006 FEW055 SCT120 22/19 A3022 RMK AO2
                 T02170194 =
2018-07-16 08:20 METAR KITR 161420Z AUTO 12005KT 10SM SCT007 BKN011 BKN055 22/19 A3023 RMK AO2
                 T02170194 =
2018-07-16 08:03 METAR KITR 161403Z AUTO 23004KT 8SM OVC005 21/19 A3024 RMK AO2 CIG 003V009
                 T02060194 =
2018-07-16 07:53 METAR KITR 161353Z AUTO 21003KT 6SM BR OVC003 21/19 A3023 RMK AO2 CIG 003V007
                 SLP185 T02060194 =
2018-07-16 07:06 METAR KITR 161306Z AUTO 00000KT 3SM BR OVC002 19/19 A3024 RMK AO2 T01940194 =
2018-07-16 06:53 METAR KITR 161253Z AUTO 22003KT 2 1/2SM BR OVC002 19/19 A3024 RMK AO2 SLP189
                 T01940194 =
2018-07-16 06:45 METAR KITR 161245Z AUTO 00000KT 1 3/4SM BR OVC002 19/19 A3023 RMK AO2 T01940194
                 =
2018-07-16 05:53 METAR KITR 161153Z AUTO 06003KT 1/2SM FG VV002 19/19 A3020 RMK AO2 SLP171
                 T01940194 10217 20194 53003 =
2018-07-16 05:10 METAR KITR 161110Z AUTO 09006KT 1/2SM FG VV002 19/19 A3018 RMK AO2 T01940189 =
2018-07-16 05:00 METAR KITR 161100Z AUTO 09005KT 1 1/4SM BR OVC002 19/19 A3018 RMK AO2 T01940189
                 =
2018-07-16 04:53 METAR KITR 161053Z AUTO 09004KT 2SM BR OVC002 19/19 A3018 RMK AO2 SLP160
                 T01940189 =
2018-07-16 04:22 METAR KITR 161022Z AUTO 08004KT 7SM BKN003 19/18 A3018 RMK AO2 T01940183 =
2018-07-16 04:13 METAR KITR 161013Z AUTO 09004KT 7SM SCT003 19/18 A3018 RMK AO2 T01940183 =
2018-07-16 03:53 METAR KITR 160953Z AUTO 08004KT 8SM CLR 19/18 A3018 RMK AO2 SLP161 T01940183 =
2018-07-16 02:53 METAR KITR 160853Z AUTO 09006KT 9SM CLR 20/19 A3019 RMK AO2 SLP160 T02000189
                 57007 =
2018-07-16 01:53 METAR KITR 160753Z AUTO 04007KT 10SM BKN060 OVC080 21/19 A3020 RMK AO2 SLP164
                 T02110189 =
2018-07-16 00:53 METAR KITR 160653Z AUTO 02007KT 10SM CLR 21/18 A3021 RMK AO2 SLP167 T02110183
                 403280156 =
2018-07-15 23:53 METAR KITR 160553Z AUTO 04005KT 10SM CLR 22/18 A3022 RMK AO2 SLP171 60000
                 T02170183 10283 20211 50005 =

Support USWX by starting your Amazon purchase here.